This is the latest recevied weather packets stored in our database for station/object HB9DOZ-13. If no packets are shown the sender has not sent any weather packets the latest 10 day(s).
| Time | Temp. | Humidity | Pressure | Rain* | Wind** | Luminosity | Snow |
|---|---|---|---|---|---|---|---|
| 1777345516 | 11.11° C | 67% | - | 0 mm | - | - | - |
| 1777344917 | 11.11° C | 67% | - | 0 mm | - | - | - |
| 1777341316 | 11.11° C | 66% | - | 0 mm | - | - | - |
| 1777336517 | 11.67° C | 67% | - | 0 mm | - | - | - |
| 1777331717 | 12.22° C | 64% | - | 0 mm | - | - | - |
| 1777329915 | 13.33° C | 64% | - | 0 mm | - | - | - |
| 1777328716 | 13.89° C | 60% | - | 0 mm | - | - | - |
| 1777327557 | 15° C | 51% | - | 0 mm | - | - | - |
| 1777326318 | 15.56° C | 49% | - | 0 mm | - | - | - |
| 1777320916 | 16.11° C | 49% | - | 0 mm | - | - | - |
| 1777310717 | 19.44° C | 48% | - | 0 mm | - | - | - |
| 1777307716 | 20° C | 38% | - | 0 mm | - | - | - |
| 1777305317 | 20.56° C | 39% | - | 0 mm | - | - | - |
| 1777301717 | 21.67° C | 39% | - | 0 mm | - | - | - |
| 1777291516 | 21.11° C | 39% | - | 0 mm | - | - | - |
| 1777283136 | 17.78° C | 56% | - | 0 mm | - | - | - |
| 1777281317 | 16.67° C | 59% | - | 0 mm | - | - | - |
| 1777272917 | 11.11° C | 70% | - | 0 mm | - | - | - |
| 1777270516 | 10° C | 71% | - | 0 mm | - | - | - |
| 1777263318 | 8.89° C | 66% | - | 0 mm | - | - | - |
| 1777262735 | 8.89° C | 65% | - | 0 mm | - | - | - |
| 1777255517 | 8.89° C | 66% | - | 0 mm | - | - | - |
| 1777254335 | 10.56° C | 60% | - | 0 mm | - | - | - |
| 1777253116 | 12.22° C | 54% | - | 0 mm | - | - | - |
| 1777252517 | 12.78° C | 52% | - | 0 mm | - | - | - |
* Rain latest hour (hover to see other rain measurements)
** Current wind speed in m/s (hover to see current wind gust speed)